Time;durP1;ratioP1;P1;durP2;ratioP2;P2;SDS_P1;SDS_P2;PMS_P1;PMS_P2;Temp;Humidity;BMP_temperature;BMP_pressure;BME280_temperature;BME280_humidity;BME280_pressure;Samples;Min_cycle;Max_cycle;Signal;HPM_P1;HPM_P2
2022/05/26 00:02:08;;;;;;;0.83;0.83;;;16.40;99.90;;;;;;5087948;28;20992;-88
2022/05/26 00:04:35;;;;;;;2.13;0.87;;;16.40;99.90;;;;;;5088445;28;20632;-89
2022/05/26 00:07:02;;;;;;;1.30;1.00;;;16.40;99.90;;;;;;5090149;28;20659;-89
2022/05/26 00:09:29;;;;;;;1.93;0.70;;;16.50;99.90;;;;;;5083262;28;20604;-88
2022/05/26 00:11:56;;;;;;;2.10;1.10;;;16.40;99.90;;;;;;5085462;28;20656;-89
2022/05/26 00:14:23;;;;;;;1.20;1.07;;;16.30;99.90;;;;;;5085841;28;20978;-88
2022/05/26 00:16:49;;;;;;;1.90;1.13;;;16.20;99.90;;;;;;5085969;28;21222;-88
2022/05/26 00:19:20;;;;;;;1.53;1.20;;;16.20;99.90;;;;;;5082694;28;20912;-88
2022/05/26 00:21:49;;;;;;;1.40;1.13;;;16.10;99.90;;;;;;5084502;28;20617;-88
2022/05/26 00:24:18;;;;;;;2.40;1.37;;;16.10;99.90;;;;;;5086192;28;20617;-88
2022/05/26 00:26:44;;;;;;;2.27;1.00;;;16.10;99.90;;;;;;5084962;28;20659;-89
2022/05/26 00:29:11;;;;;;;1.40;1.00;;;16.10;99.90;;;;;;5081721;28;20989;-88
2022/05/26 00:31:40;;;;;;;1.30;1.20;;;16.20;99.90;;;;;;5084187;28;21164;-88
2022/05/26 00:34:07;;;;;;;1.70;0.90;;;16.10;99.90;;;;;;5087319;28;20624;-88
2022/05/26 00:36:38;;;;;;;1.90;1.10;;;16.10;99.90;;;;;;5083106;28;20611;-89
2022/05/26 00:39:07;;;;;;;1.37;0.80;;;16.10;99.90;;;;;;5085363;28;20622;-88
2022/05/26 00:41:33;;;;;;;1.30;1.20;;;16.20;99.90;;;;;;5105080;28;20627;-88
2022/05/26 00:44:00;;;;;;;1.20;1.10;;;16.30;99.90;;;;;;5108522;28;20610;-88
2022/05/26 00:46:37;;;;;;;1.63;1.10;;;16.30;99.90;;;;;;5089071;28;20634;-88
2022/05/26 00:49:05;;;;;;;1.30;1.20;;;16.30;99.90;;;;;;5081495;28;20642;-88
2022/05/26 00:51:37;;;;;;;1.33;1.17;;;16.30;99.90;;;;;;5084755;28;20685;-88
2022/05/26 00:54:09;;;;;;;2.10;0.93;;;16.20;99.90;;;;;;5081597;28;20716;-88
2022/05/26 00:56:42;;;;;;;5.47;0.80;;;16.20;99.90;;;;;;5082683;28;20631;-88
2022/05/26 00:59:15;;;;;;;2.50;1.33;;;16.30;99.90;;;;;;5082349;28;20609;-88
2022/05/26 01:01:42;;;;;;;1.33;1.23;;;16.20;99.90;;;;;;5087007;28;20671;-88
2022/05/26 01:04:13;;;;;;;3.80;0.90;;;16.20;99.90;;;;;;5084443;28;20632;-88
2022/05/26 01:06:46;;;;;;;2.00;1.23;;;16.20;99.90;;;;;;5084388;28;20624;-88
2022/05/26 01:09:13;;;;;;;1.43;1.20;;;16.20;99.90;;;;;;5079563;28;20608;-88
2022/05/26 01:11:42;;;;;;;1.60;1.00;;;16.20;99.90;;;;;;5084236;28;20668;-88
2022/05/26 01:14:13;;;;;;;2.30;1.37;;;16.20;99.90;;;;;;5083864;28;20612;-88
2022/05/26 01:16:48;;;;;;;3.13;2.40;;;16.20;99.90;;;;;;5085938;28;20628;-88
2022/05/26 01:19:53;;;;;;;2.30;2.10;;;16.10;99.90;;;;;;5084788;28;20615;-88
2022/05/26 01:22:39;;;;;;;2.87;1.70;;;16.10;99.90;;;;;;5083741;28;20981;-88
2022/05/26 01:25:33;;;;;;;1.50;1.40;;;16.10;99.90;;;;;;5085766;28;20631;-88
2022/05/26 01:28:15;;;;;;;2.60;1.50;;;16.00;99.90;;;;;;5081732;28;20620;-88
2022/05/26 01:30:51;;;;;;;1.30;1.13;;;16.10;99.90;;;;;;5084379;28;20667;-88
2022/05/26 01:33:38;;;;;;;2.27;2.07;;;16.20;99.90;;;;;;5084273;28;21193;-88
2022/05/26 01:36:13;;;;;;;1.30;1.20;;;16.10;99.90;;;;;;5083789;28;21335;-88
2022/05/26 01:38:55;;;;;;;1.70;1.17;;;16.00;99.90;;;;;;5079836;28;20628;-88
2022/05/26 01:41:40;;;;;;;1.23;1.10;;;16.00;99.90;;;;;;5084865;28;20650;-88
2022/05/26 01:44:22;;;;;;;1.20;1.10;;;15.90;99.90;;;;;;5084838;28;20616;-88
2022/05/26 01:46:50;;;;;;;1.83;1.33;;;15.90;99.90;;;;;;5080805;28;20604;-89
2022/05/26 01:49:31;;;;;;;1.27;1.17;;;15.90;99.90;;;;;;5088461;28;20616;-88
2022/05/26 01:52:05;;;;;;;2.00;1.03;;;15.80;99.90;;;;;;5083060;28;21027;-88
2022/05/26 01:54:38;;;;;;;2.33;1.13;;;15.80;99.90;;;;;;5081049;28;20634;-88
2022/05/26 01:57:11;;;;;;;1.03;0.90;;;15.70;99.90;;;;;;5086007;28;20651;-89
2022/05/26 01:59:42;;;;;;;0.87;0.87;;;15.70;99.90;;;;;;5082387;28;20657;-88
2022/05/26 02:02:12;;;;;;;1.47;1.03;;;15.60;99.90;;;;;;5084572;28;20745;-88
2022/05/26 02:04:45;;;;;;;1.20;0.80;;;15.70;99.90;;;;;;5082653;28;21229;-88
2022/05/26 02:07:16;;;;;;;0.97;0.97;;;15.70;99.90;;;;;;5086498;28;20627;-89
2022/05/26 02:09:45;;;;;;;3.07;0.90;;;15.70;99.90;;;;;;5088321;28;20682;-88
2022/05/26 02:12:18;;;;;;;0.97;0.83;;;15.60;99.90;;;;;;5095215;28;20652;-88
2022/05/26 02:14:48;;;;;;;1.13;1.03;;;15.70;99.90;;;;;;5090588;28;20628;-88
2022/05/26 02:17:18;;;;;;;1.10;0.80;;;15.60;99.90;;;;;;5091181;28;21216;-88
2022/05/26 02:19:51;;;;;;;1.00;1.00;;;15.60;99.90;;;;;;5090042;28;20645;-88
2022/05/26 02:22:22;;;;;;;2.70;0.93;;;15.60;99.90;;;;;;5088776;28;20620;-88
2022/05/26 02:24:54;;;;;;;1.50;1.00;;;15.60;99.90;;;;;;5091741;28;20624;-88
2022/05/26 02:27:21;;;;;;;3.30;0.80;;;15.60;99.90;;;;;;5087338;28;20628;-87
2022/05/26 02:29:55;;;;;;;2.30;1.20;;;15.60;99.90;;;;;;5083935;28;21245;-88
2022/05/26 02:32:27;;;;;;;1.10;0.90;;;15.50;99.90;;;;;;5088109;28;20659;-87
2022/05/26 02:34:58;;;;;;;1.43;0.90;;;15.50;99.90;;;;;;5089553;28;20628;-88
2022/05/26 02:37:26;;;;;;;2.40;1.33;;;15.50;99.90;;;;;;5086078;28;20624;-88
2022/05/26 02:39:53;;;;;;;1.77;1.30;;;15.50;99.90;;;;;;5085847;28;20648;-88
2022/05/26 02:42:23;;;;;;;1.60;1.13;;;15.40;99.90;;;;;;5088932;28;20619;-88
2022/05/26 02:44:50;;;;;;;1.37;1.27;;;15.40;99.90;;;;;;5088989;28;20624;-88
2022/05/26 02:47:34;;;;;;;0.80;0.80;;;15.40;99.90;;;;;;5085026;28;20613;-87
2022/05/26 02:50:16;;;;;;;1.37;1.00;;;15.30;99.90;;;;;;5085812;28;20662;-88
2022/05/26 02:52:52;;;;;;;2.20;0.60;;;15.40;99.90;;;;;;5087854;28;20719;-88
2022/05/26 02:55:30;;;;;;;0.80;0.80;;;15.40;99.90;;;;;;5089801;28;20619;-88
2022/05/26 02:58:06;;;;;;;2.67;0.97;;;15.40;99.90;;;;;;5084457;28;20639;-87
2022/05/26 03:00:41;;;;;;;2.30;0.80;;;15.30;99.90;;;;;;5085210;28;20642;-88
2022/05/26 03:03:13;;;;;;;1.03;1.03;;;15.30;99.90;;;;;;5086095;28;20642;-88
2022/05/26 03:05:49;;;;;;;0.80;0.77;;;15.30;99.90;;;;;;5086976;28;20990;-89
2022/05/26 03:08:19;;;;;;;0.80;0.80;;;15.20;99.90;;;;;;5084610;28;20577;-88
2022/05/26 03:10:50;;;;;;;1.83;1.10;;;15.20;99.90;;;;;;5082382;28;20648;-88
2022/05/26 03:13:18;;;;;;;1.33;1.23;;;15.20;99.90;;;;;;5087008;28;21178;-88
2022/05/26 03:15:45;;;;;;;1.20;1.00;;;15.10;99.90;;;;;;5086105;28;21195;-88
2022/05/26 03:18:12;;;;;;;0.80;0.80;;;15.10;99.90;;;;;;5087857;28;20632;-88
2022/05/26 03:20:39;;;;;;;3.23;0.70;;;15.10;99.90;;;;;;5088987;28;20659;-88
2022/05/26 03:23:07;;;;;;;1.10;1.00;;;15.10;99.90;;;;;;5086131;28;20632;-88
2022/05/26 03:25:34;;;;;;;1.30;0.87;;;15.10;99.90;;;;;;5084165;28;20616;-88
2022/05/26 03:28:01;;;;;;;2.50;1.10;;;15.10;99.90;;;;;;5084710;28;21210;-88
2022/05/26 03:30:27;;;;;;;1.97;0.90;;;15.10;99.90;;;;;;5085670;28;21121;-88
2022/05/26 03:32:54;;;;;;;1.40;1.00;;;15.00;99.90;;;;;;5087985;28;21189;-87
2022/05/26 03:40:52;;;;;;;1.70;1.17;;;15.10;99.90;;;;;;5089964;28;21539;-88
2022/05/26 03:43:20;;;;;;;0.93;0.90;;;15.00;99.90;;;;;;5088213;28;20616;-88
2022/05/26 03:45:48;;;;;;;0.93;0.80;;;14.90;99.90;;;;;;5086536;28;20628;-88
2022/05/26 03:48:15;;;;;;;1.50;1.13;;;15.00;99.90;;;;;;5078933;28;20619;-88
2022/05/26 03:50:42;;;;;;;1.10;0.83;;;14.90;99.90;;;;;;5086690;28;20663;-88
2022/05/26 03:53:10;;;;;;;1.07;1.00;;;14.90;99.90;;;;;;5085385;28;20674;-88
2022/05/26 03:55:38;;;;;;;2.63;1.10;;;14.90;99.90;;;;;;5083091;28;20632;-88
2022/05/26 03:58:05;;;;;;;1.67;1.37;;;15.00;99.90;;;;;;5084562;28;20636;-88
2022/05/26 04:00:32;;;;;;;2.20;0.97;;;14.90;99.90;;;;;;5085827;28;20690;-88
2022/05/26 04:02:59;;;;;;;3.03;1.13;;;14.90;99.90;;;;;;5085868;28;20636;-88
2022/05/26 04:05:27;;;;;;;1.40;0.90;;;14.70;99.90;;;;;;5086019;28;20668;-87
2022/05/26 04:07:54;;;;;;;1.30;1.17;;;14.90;99.90;;;;;;5086094;28;20624;-88
2022/05/26 04:10:22;;;;;;;0.90;0.90;;;14.90;99.90;;;;;;5082953;28;20653;-88
2022/05/26 04:12:50;;;;;;;1.53;1.10;;;14.90;99.90;;;;;;5077049;28;21148;-88
2022/05/26 04:15:18;;;;;;;2.23;0.90;;;14.90;99.90;;;;;;5084616;28;20647;-88
2022/05/26 04:17:46;;;;;;;2.77;0.90;;;14.90;99.90;;;;;;5086461;28;20956;-88
2022/05/26 04:20:15;;;;;;;1.13;1.00;;;14.90;99.90;;;;;;5086686;28;20957;-87
2022/05/26 04:22:42;;;;;;;1.57;0.77;;;15.00;99.90;;;;;;5085683;28;20632;-88
2022/05/26 04:25:09;;;;;;;1.40;1.10;;;14.90;99.90;;;;;;5084481;28;20643;-88
2022/05/26 04:27:38;;;;;;;1.00;0.90;;;14.90;99.90;;;;;;5082586;28;20627;-88
2022/05/26 04:30:08;;;;;;;1.50;1.00;;;14.90;99.90;;;;;;5086743;28;20651;-88
2022/05/26 04:32:35;;;;;;;1.27;1.07;;;15.00;99.90;;;;;;5082962;28;20671;-88
2022/05/26 04:35:03;;;;;;;1.10;1.00;;;15.10;99.90;;;;;;5085947;28;20936;-88
2022/05/26 04:37:30;;;;;;;3.23;1.90;;;15.10;99.90;;;;;;5084798;28;20971;-88
2022/05/26 04:39:58;;;;;;;0.63;0.60;;;15.10;99.90;;;;;;5083410;28;21315;-88
2022/05/26 04:42:26;;;;;;;2.10;1.43;;;15.20;99.90;;;;;;5084670;28;20624;-88
2022/05/26 04:44:54;;;;;;;1.03;0.90;;;15.20;99.90;;;;;;5079659;28;21182;-88
2022/05/26 04:47:21;;;;;;;2.07;1.30;;;15.20;99.90;;;;;;5085700;28;21217;-88
2022/05/26 04:49:48;;;;;;;1.63;0.97;;;15.30;99.90;;;;;;5086005;28;20648;-88
2022/05/26 04:52:24;;;;;;;1.20;0.90;;;15.40;99.90;;;;;;5084528;28;20668;-88
2022/05/26 04:54:52;;;;;;;0.70;0.70;;;15.40;99.90;;;;;;5083448;28;20647;-88
2022/05/26 04:57:20;;;;;;;0.90;0.80;;;15.50;99.90;;;;;;5083184;28;20639;-87
2022/05/26 04:59:47;;;;;;;1.33;1.10;;;15.60;99.90;;;;;;5084522;28;21159;-88
2022/05/26 05:02:17;;;;;;;1.43;0.83;;;15.70;99.90;;;;;;5084449;28;21217;-88
2022/05/26 05:04:46;;;;;;;1.47;0.77;;;15.90;99.90;;;;;;5085860;28;20628;-87
2022/05/26 05:07:15;;;;;;;1.27;1.17;;;15.90;99.90;;;;;;5086011;28;20632;-87
2022/05/26 05:09:42;;;;;;;1.67;1.00;;;15.90;99.90;;;;;;5081382;28;20671;-87
2022/05/26 05:12:12;;;;;;;1.10;1.00;;;16.00;99.90;;;;;;5081924;28;21004;-87
2022/05/26 05:14:42;;;;;;;1.90;1.00;;;16.00;99.90;;;;;;5084477;28;20628;-87
2022/05/26 05:17:09;;;;;;;1.50;1.20;;;16.00;99.90;;;;;;5085314;28;21208;-86
2022/05/26 05:19:38;;;;;;;1.70;1.20;;;16.10;99.90;;;;;;5083501;28;20658;-87
2022/05/26 05:22:09;;;;;;;1.87;1.30;;;16.10;99.90;;;;;;5078697;28;20669;-87
2022/05/26 05:24:41;;;;;;;1.00;0.90;;;16.10;99.90;;;;;;5081768;28;20620;-87
2022/05/26 05:27:18;;;;;;;1.37;1.13;;;16.40;99.90;;;;;;5082078;28;20633;-87
2022/05/26 05:29:46;;;;;;;1.90;1.20;;;16.40;99.90;;;;;;5083306;28;20670;-87
2022/05/26 05:32:18;;;;;;;2.63;0.90;;;16.30;99.90;;;;;;5086006;28;20654;-88
2022/05/26 05:34:50;;;;;;;0.70;0.70;;;16.40;99.90;;;;;;5081894;28;21012;-87
2022/05/26 05:37:17;;;;;;;0.97;0.70;;;16.70;99.90;;;;;;5085519;28;20629;-87
2022/05/26 05:39:46;;;;;;;1.47;0.70;;;16.80;99.90;;;;;;5080608;28;20637;-89
2022/05/26 05:42:13;;;;;;;1.60;0.87;;;16.90;99.90;;;;;;5078904;28;20604;-89
2022/05/26 05:44:40;;;;;;;1.27;1.03;;;17.00;99.90;;;;;;5085054;28;20981;-89
2022/05/26 05:47:07;;;;;;;1.43;0.67;;;17.20;99.90;;;;;;5088223;28;20634;-88
2022/05/26 05:49:34;;;;;;;2.20;0.90;;;17.40;99.90;;;;;;5088370;28;21005;-89
2022/05/26 05:52:09;;;;;;;1.53;0.80;;;17.40;99.90;;;;;;5089227;28;21013;-89
2022/05/26 05:54:36;;;;;;;1.10;1.00;;;17.40;99.90;;;;;;5088025;28;20643;-89
2022/05/26 05:57:03;;;;;;;3.73;1.07;;;17.00;99.90;;;;;;5088786;28;20624;-89
2022/05/26 05:59:30;;;;;;;1.23;0.80;;;17.10;99.90;;;;;;5086175;28;20639;-88
2022/05/26 06:01:57;;;;;;;4.40;1.00;;;17.30;99.90;;;;;;5086814;28;20616;-89
2022/05/26 06:04:24;;;;;;;0.80;0.80;;;17.50;99.90;;;;;;5089748;28;20628;-89
2022/05/26 06:06:51;;;;;;;1.03;0.70;;;17.60;99.90;;;;;;5088408;28;20619;-88
2022/05/26 06:09:20;;;;;;;2.30;0.90;;;17.90;99.90;;;;;;5083265;28;20628;-89
2022/05/26 06:11:48;;;;;;;0.70;0.60;;;18.10;99.90;;;;;;5087434;28;20722;-88
2022/05/26 06:14:16;;;;;;;1.27;0.70;;;18.10;99.90;;;;;;5081567;28;20671;-88
2022/05/26 06:16:45;;;;;;;1.80;0.80;;;18.20;99.90;;;;;;5089789;28;20683;-89
2022/05/26 06:19:11;;;;;;;1.00;0.90;;;18.50;99.90;;;;;;5087674;28;20689;-88
2022/05/26 06:21:39;;;;;;;1.70;1.00;;;18.50;99.90;;;;;;5086482;28;20746;-89
2022/05/26 06:24:07;;;;;;;0.80;0.60;;;18.70;99.90;;;;;;5086604;28;20677;-89
2022/05/26 06:26:36;;;;;;;1.93;0.83;;;18.80;99.90;;;;;;5084845;28;20722;-89
2022/05/26 06:37:16;;;;;;;2.40;0.50;;;18.80;97.70;;;;;;5088209;28;20715;-89
2022/05/26 06:39:44;;;;;;;0.80;0.70;;;18.70;96.10;;;;;;5086208;28;20736;-88
2022/05/26 06:42:12;;;;;;;0.93;0.70;;;18.50;98.40;;;;;;5086825;28;20640;-88
2022/05/26 06:44:42;;;;;;;1.20;0.50;;;18.50;97.50;;;;;;5083530;28;20617;-89
2022/05/26 06:47:11;;;;;;;1.70;0.43;;;18.70;97.50;;;;;;5083398;28;20632;-89
2022/05/26 06:49:39;;;;;;;3.50;1.47;;;18.70;96.40;;;;;;5082553;28;20647;-89
2022/05/26 06:52:07;;;;;;;1.80;0.70;;;18.70;95.90;;;;;;5083561;28;20662;-89
2022/05/26 06:54:36;;;;;;;0.83;0.70;;;18.70;95.90;;;;;;5084487;28;20663;-89
2022/05/26 06:57:03;;;;;;;1.87;0.70;;;18.60;95.60;;;;;;5086433;28;20625;-89
2022/05/26 06:59:31;;;;;;;1.27;0.43;;;18.50;96.20;;;;;;5083905;28;20644;-89
2022/05/26 07:01:58;;;;;;;2.40;0.60;;;18.60;97.10;;;;;;5088173;28;20616;-89
2022/05/26 07:04:25;;;;;;;1.43;0.60;;;18.70;96.60;;;;;;5087020;28;20622;-89
2022/05/26 07:06:53;;;;;;;5.20;0.70;;;18.80;95.70;;;;;;5086223;28;20628;-89
2022/05/26 07:09:21;;;;;;;1.10;0.70;;;18.80;96.00;;;;;;5086089;28;20982;-89
2022/05/26 07:11:48;;;;;;;1.07;0.70;;;18.80;96.00;;;;;;5088010;28;20612;-89
2022/05/26 07:14:15;;;;;;;2.30;0.80;;;18.90;95.80;;;;;;5089305;28;20656;-88
2022/05/26 07:16:44;;;;;;;1.27;0.60;;;18.90;96.00;;;;;;5087947;28;20633;-89
2022/05/26 07:19:11;;;;;;;1.60;0.90;;;18.90;95.70;;;;;;5089186;28;20659;-88
2022/05/26 07:21:37;;;;;;;1.10;0.73;;;18.90;96.90;;;;;;5086049;28;20629;-88
2022/05/26 07:24:05;;;;;;;1.67;0.80;;;18.90;95.00;;;;;;5089117;28;20628;-88
2022/05/26 07:26:32;;;;;;;2.70;0.77;;;18.80;95.20;;;;;;5086663;28;20616;-89
2022/05/26 07:28:59;;;;;;;2.83;0.97;;;18.80;95.80;;;;;;5086422;28;20621;-89
2022/05/26 07:31:26;;;;;;;2.63;0.53;;;18.80;95.20;;;;;;5087673;28;21077;-89
2022/05/26 07:33:55;;;;;;;1.70;0.77;;;18.70;95.60;;;;;;5084668;28;20682;-88
2022/05/26 07:41:58;;;;;;;0.90;0.60;;;18.90;95.50;;;;;;5087181;28;20611;-88
2022/05/26 07:44:26;;;;;;;0.70;0.60;;;19.20;95.80;;;;;;5088893;28;20644;-89
2022/05/26 07:46:53;;;;;;;0.63;0.60;;;19.20;94.90;;;;;;5082602;28;21029;-89
2022/05/26 07:49:24;;;;;;;2.93;0.77;;;19.30;94.70;;;;;;5084720;28;20620;-88
2022/05/26 07:51:51;;;;;;;0.87;0.50;;;19.40;94.90;;;;;;5079801;28;20714;-88
2022/05/26 07:54:17;;;;;;;0.57;0.50;;;19.50;94.10;;;;;;5085915;28;21210;-88
2022/05/26 07:56:44;;;;;;;1.40;0.73;;;19.40;94.60;;;;;;5086745;28;20639;-88
2022/05/26 07:59:11;;;;;;;0.70;0.50;;;19.50;93.90;;;;;;5079922;28;20805;-88
2022/05/26 08:01:38;;;;;;;0.90;0.60;;;19.70;93.70;;;;;;5088360;28;20666;-88
2022/05/26 08:04:07;;;;;;;3.07;1.00;;;19.70;93.80;;;;;;5087751;28;20651;-88
2022/05/26 08:06:36;;;;;;;2.03;0.70;;;19.70;93.10;;;;;;5084204;28;20608;-88
2022/05/26 08:09:03;;;;;;;0.50;0.50;;;19.70;92.90;;;;;;5085036;28;21166;-87
2022/05/26 08:11:31;;;;;;;1.83;0.60;;;19.60;93.00;;;;;;5090005;28;20636;-89
2022/05/26 08:13:58;;;;;;;2.30;0.40;;;19.60;93.60;;;;;;5087652;28;20652;-88
2022/05/26 08:16:25;;;;;;;1.03;0.53;;;19.70;94.70;;;;;;5082687;28;20751;-88
2022/05/26 08:18:51;;;;;;;1.13;1.03;;;19.90;93.60;;;;;;5078132;28;20629;-88
2022/05/26 08:21:18;;;;;;;2.20;0.90;;;19.90;93.10;;;;;;5082411;28;20657;-88
2022/05/26 08:23:48;;;;;;;2.17;0.70;;;19.80;93.50;;;;;;5080248;28;20616;-88
2022/05/26 08:26:15;;;;;;;0.83;0.57;;;19.80;93.30;;;;;;5085184;28;20632;-88
2022/05/26 08:28:43;;;;;;;1.73;0.87;;;19.70;93.50;;;;;;5082359;28;20624;-91
2022/05/26 08:31:13;;;;;;;1.37;0.50;;;19.70;93.20;;;;;;5085724;28;20663;-90
2022/05/26 08:33:40;;;;;;;1.23;0.47;;;19.80;93.90;;;;;;5084613;28;20652;-90
2022/05/26 08:36:09;;;;;;;0.70;0.50;;;19.80;93.70;;;;;;5084185;28;21010;-90
2022/05/26 08:38:37;;;;;;;1.60;0.60;;;19.80;93.40;;;;;;5085334;28;20607;-90
2022/05/26 08:41:07;;;;;;;1.00;0.63;;;19.70;93.30;;;;;;5085262;28;21253;-90
2022/05/26 08:43:39;;;;;;;0.87;0.53;;;19.70;93.60;;;;;;5085102;28;20620;-89
2022/05/26 08:46:09;;;;;;;1.17;0.70;;;19.80;93.40;;;;;;5081928;28;20628;-90
2022/05/26 08:48:51;;;;;;;1.33;0.90;;;19.90;94.70;;;;;;5083004;28;20620;-90
2022/05/26 08:51:26;;;;;;;0.60;0.47;;;20.00;93.80;;;;;;5086105;28;20766;-88
2022/05/26 08:53:54;;;;;;;0.77;0.60;;;20.10;92.90;;;;;;5082986;28;20660;-89
2022/05/26 08:56:27;;;;;;;0.90;0.73;;;20.10;93.10;;;;;;5085182;28;20624;-90
2022/05/26 08:59:01;;;;;;;1.17;0.60;;;20.20;93.40;;;;;;5084569;28;20628;-90
2022/05/26 09:01:32;;;;;;;3.13;0.77;;;20.20;92.90;;;;;;5081891;28;20766;-89
2022/05/26 09:04:00;;;;;;;2.20;0.93;;;20.20;92.60;;;;;;5081820;28;20632;-90
2022/05/26 09:06:28;;;;;;;3.73;0.90;;;20.00;92.80;;;;;;5085419;28;20628;-90
2022/05/26 09:14:32;;;;;;;0.80;0.60;;;20.20;93.00;;;;;;5086415;28;20663;-90
2022/05/26 09:17:01;;;;;;;0.90;0.50;;;20.30;93.10;;;;;;5084239;28;20620;-90
2022/05/26 09:19:33;;;;;;;1.83;0.57;;;20.30;92.50;;;;;;5077084;28;20632;-90
2022/05/26 09:22:00;;;;;;;0.93;0.63;;;20.20;92.70;;;;;;5087650;28;20624;-89
2022/05/26 09:24:36;;;;;;;1.03;0.57;;;20.20;92.60;;;;;;5086427;28;20612;-90
2022/05/26 09:27:09;;;;;;;3.47;0.70;;;20.10;92.50;;;;;;5087156;28;21154;-89
2022/05/26 09:29:38;;;;;;;1.43;0.60;;;20.10;92.90;;;;;;5087769;28;20662;-89
2022/05/26 09:32:06;;;;;;;2.50;0.57;;;20.10;93.00;;;;;;5090905;28;20635;-90
2022/05/26 09:34:36;;;;;;;1.73;0.70;;;20.10;92.70;;;;;;5089990;28;21201;-89
2022/05/26 09:37:07;;;;;;;1.03;0.60;;;20.10;92.30;;;;;;5092289;28;21088;-89
2022/05/26 09:39:37;;;;;;;5.13;0.70;;;20.30;92.70;;;;;;5088368;28;20674;-89
2022/05/26 09:42:22;;;;;;;0.80;0.60;;;20.50;92.80;;;;;;5086967;28;20632;-89
2022/05/26 09:44:54;;;;;;;0.83;0.73;;;20.50;92.50;;;;;;5087974;28;20899;-90
2022/05/26 09:47:25;;;;;;;1.33;0.80;;;20.60;92.60;;;;;;5089392;28;20608;-90
2022/05/26 09:49:54;;;;;;;0.97;0.60;;;20.60;92.80;;;;;;5082797;28;20679;-90
2022/05/26 09:52:23;;;;;;;1.17;0.60;;;20.70;93.10;;;;;;5088949;28;20620;-89
2022/05/26 09:55:07;;;;;;;0.50;0.40;;;20.70;91.70;;;;;;5088986;28;20665;-90
2022/05/26 09:57:35;;;;;;;0.70;0.50;;;20.50;92.00;;;;;;5087036;28;21049;-89
2022/05/26 10:00:19;;;;;;;3.07;0.70;;;20.20;91.90;;;;;;5086771;28;20648;-89
2022/05/26 10:02:49;;;;;;;0.90;0.90;;;20.10;92.40;;;;;;5088864;28;21198;-89
2022/05/26 10:05:24;;;;;;;1.13;0.83;;;20.10;92.40;;;;;;5089778;28;20639;-89
2022/05/26 10:08:00;;;;;;;1.03;0.60;;;20.20;92.80;;;;;;5088197;28;21236;-89
2022/05/26 10:10:30;;;;;;;1.47;0.90;;;20.20;93.00;;;;;;5085592;28;20651;-89
2022/05/26 10:13:19;;;;;;;0.60;0.60;;;20.10;92.50;;;;;;5089389;28;20684;-89
2022/05/26 10:15:59;;;;;;;0.60;0.60;;;20.00;93.20;;;;;;5088287;28;21270;-89
2022/05/26 10:18:50;;;;;;;0.80;0.40;;;20.00;92.80;;;;;;5089269;28;20615;-89
2022/05/26 10:21:30;;;;;;;1.83;0.60;;;20.00;93.10;;;;;;5088465;28;20743;-89
2022/05/26 10:24:26;;;;;;;0.67;0.67;;;19.90;93.50;;;;;;5086439;28;20988;-88
2022/05/26 10:26:57;;;;;;;1.67;0.47;;;19.70;92.90;;;;;;5088905;28;21252;-89
2022/05/26 10:29:43;;;;;;;1.37;0.60;;;19.60;92.90;;;;;;5088623;28;20620;-88
2022/05/26 10:32:25;;;;;;;1.37;0.70;;;19.60;93.30;;;;;;5085887;28;20627;-89
2022/05/26 10:35:10;;;;;;;1.33;0.93;;;19.60;93.20;;;;;;5085794;28;20655;-89
2022/05/26 10:38:02;;;;;;;1.20;0.77;;;19.70;93.70;;;;;;5088443;28;20987;-89
2022/05/26 10:40:43;;;;;;;2.17;1.17;;;19.80;94.20;;;;;;5083703;28;20668;-89
2022/05/26 10:43:15;;;;;;;1.57;1.17;;;20.00;93.10;;;;;;5081401;28;20629;-89
2022/05/26 10:45:48;;;;;;;1.60;1.17;;;20.00;93.40;;;;;;5086320;28;20981;-89
2022/05/26 10:48:22;;;;;;;2.37;1.07;;;20.10;93.00;;;;;;5085662;28;20624;-90
2022/05/26 10:50:53;;;;;;;3.87;0.93;;;20.10;93.20;;;;;;5085729;28;20675;-90
2022/05/26 10:53:27;;;;;;;1.60;0.67;;;20.20;92.90;;;;;;5083328;28;20791;-90
2022/05/26 10:56:00;;;;;;;0.70;0.60;;;20.20;93.90;;;;;;5079460;28;20664;-88
2022/05/26 10:58:32;;;;;;;0.90;0.90;;;20.30;93.00;;;;;;5085601;28;20638;-88
2022/05/26 11:01:05;;;;;;;1.13;0.97;;;20.40;92.50;;;;;;5084354;28;20651;-88
2022/05/26 11:03:37;;;;;;;0.70;0.70;;;20.40;92.50;;;;;;5087359;28;20741;-88
2022/05/26 11:06:09;;;;;;;1.33;0.90;;;20.40;92.90;;;;;;5084528;28;20629;-88
2022/05/26 11:08:40;;;;;;;1.70;0.67;;;20.50;92.60;;;;;;5079791;28;20664;-89
2022/05/26 11:11:14;;;;;;;0.77;0.77;;;20.40;93.00;;;;;;5078607;28;20666;-89
2022/05/26 11:13:52;;;;;;;0.97;0.87;;;20.30;93.00;;;;;;5087024;28;20639;-90
2022/05/26 11:19:24;;;;;;;1.37;1.23;;;20.00;93.50;;;;;;5088948;28;20975;-89
2022/05/26 11:21:52;;;;;;;2.70;1.10;;;19.90;93.20;;;;;;5091843;28;20635;-89
2022/05/26 11:24:20;;;;;;;2.83;0.80;;;20.00;93.00;;;;;;5086169;28;20655;-89
2022/05/26 11:26:53;;;;;;;3.33;0.90;;;19.90;93.20;;;;;;5090957;28;20639;-90
2022/05/26 11:29:24;;;;;;;1.53;1.43;;;20.00;93.50;;;;;;5087399;28;20616;-88
2022/05/26 11:37:55;;;;;;;0.90;0.70;;;20.00;92.70;;;;;;5078049;28;20588;-88
2022/05/26 11:40:31;;;;;;;1.23;0.83;;;19.90;92.80;;;;;;5087767;28;20832;-89
2022/05/26 11:42:59;;;;;;;1.47;0.90;;;19.80;93.10;;;;;;5086620;28;20624;-89
2022/05/26 11:45:28;;;;;;;0.77;0.77;;;19.90;93.20;;;;;;5097797;28;20608;-90
2022/05/26 11:48:00;;;;;;;2.50;0.90;;;19.90;93.30;;;;;;5088443;28;20639;-90
2022/05/26 11:50:57;;;;;;;2.00;0.70;;;20.10;93.30;;;;;;5087596;28;20655;-89
2022/05/26 11:53:40;;;;;;;3.30;1.00;;;20.10;93.20;;;;;;5087667;28;20632;-89
2022/05/26 11:56:44;;;;;;;2.50;0.87;;;20.10;93.20;;;;;;5085123;28;20687;-89
2022/05/26 11:59:39;;;;;;;1.97;1.17;;;20.30;93.10;;;;;;5085739;28;20623;-89
2022/05/26 12:02:28;;;;;;;1.87;1.10;;;20.10;93.20;;;;;;5085341;28;20616;-89
2022/05/26 12:04:56;;;;;;;1.20;0.90;;;20.40;93.00;;;;;;5080120;28;20632;-89
2022/05/26 12:07:41;;;;;;;0.80;0.70;;;20.50;92.70;;;;;;5084479;28;20632;-89
2022/05/26 12:10:20;;;;;;;1.03;0.80;;;20.60;92.90;;;;;;5086906;28;21216;-89
2022/05/26 12:12:47;;;;;;;2.40;1.00;;;20.60;92.80;;;;;;5086916;28;20588;-89
2022/05/26 12:15:23;;;;;;;2.33;1.30;;;20.70;92.80;;;;;;5087718;28;20674;-89
2022/05/26 12:17:52;;;;;;;1.03;0.90;;;20.80;92.40;;;;;;5082888;28;20585;-89
2022/05/26 12:20:34;;;;;;;2.87;1.40;;;20.90;92.30;;;;;;5082814;28;20679;-89
2022/05/26 12:23:34;;;;;;;1.83;0.97;;;21.00;92.30;;;;;;5085709;28;20637;-89
2022/05/26 12:26:49;;;;;;;3.53;1.20;;;21.00;92.00;;;;;;5025679;28;20623;-90
2022/05/26 12:29:44;;;;;;;1.10;1.00;;;21.00;92.10;;;;;;5023800;28;20622;-89
2022/05/26 12:32:13;;;;;;;1.13;0.90;;;20.90;91.80;;;;;;5084858;28;20628;-89
2022/05/26 12:34:55;;;;;;;0.97;0.90;;;20.70;92.00;;;;;;5088708;28;21234;-89
2022/05/26 12:37:37;;;;;;;2.40;1.13;;;20.70;92.10;;;;;;5087994;28;20630;-89
2022/05/26 12:40:29;;;;;;;1.63;1.30;;;20.60;92.40;;;;;;5083764;28;21130;-90
2022/05/26 12:43:29;;;;;;;1.97;1.00;;;20.50;92.70;;;;;;5088878;28;20620;-89
2022/05/26 12:46:09;;;;;;;0.90;0.67;;;20.40;92.70;;;;;;5068242;28;20616;-89
2022/05/26 12:49:01;;;;;;;2.63;0.90;;;20.30;93.10;;;;;;5082490;28;20611;-89
2022/05/26 12:51:34;;;;;;;1.50;0.90;;;20.30;93.80;;;;;;5080019;28;20666;-89
2022/05/26 12:54:05;;;;;;;2.43;1.20;;;20.20;93.30;;;;;;5086073;28;20719;-89
2022/05/26 12:56:50;;;;;;;3.53;1.07;;;20.10;93.40;;;;;;5084943;28;21262;-89
2022/05/26 12:59:23;;;;;;;1.70;0.77;;;20.10;93.60;;;;;;5086550;28;20655;-89
2022/05/26 13:01:50;;;;;;;0.90;0.70;;;20.20;93.50;;;;;;5087869;28;20620;-88
2022/05/26 13:04:21;;;;;;;1.97;1.10;;;20.20;93.10;;;;;;5088891;28;20647;-89
2022/05/26 13:06:52;;;;;;;1.73;1.13;;;20.40;93.60;;;;;;5082349;28;20629;-89
2022/05/26 13:09:24;;;;;;;0.80;0.77;;;20.70;93.00;;;;;;5087679;28;20921;-89
2022/05/26 13:11:53;;;;;;;1.47;1.10;;;20.80;92.80;;;;;;5086438;28;20753;-89
2022/05/26 13:14:39;;;;;;;2.67;1.10;;;21.10;93.00;;;;;;5080970;28;21151;-89
2022/05/26 13:17:13;;;;;;;1.53;0.80;;;21.70;92.20;;;;;;5085289;28;20967;-89
2022/05/26 13:19:42;;;;;;;2.13;1.13;;;22.30;90.80;;;;;;5089866;28;20656;-90
2022/05/26 13:22:14;;;;;;;2.20;0.87;;;22.80;91.20;;;;;;5086408;28;21402;-89
2022/05/26 13:24:51;;;;;;;1.73;1.13;;;23.10;90.70;;;;;;5084231;28;20625;-89
2022/05/26 13:27:18;;;;;;;3.60;1.17;;;23.20;89.80;;;;;;5086118;28;20624;-89
2022/05/26 13:29:48;;;;;;;2.07;1.20;;;23.10;90.70;;;;;;5086990;28;20656;-89
2022/05/26 13:35:16;;;;;;;1.20;1.00;;;22.80;90.50;;;;;;5082205;28;21446;-90
2022/05/26 13:37:44;;;;;;;2.30;1.27;;;22.70;90.50;;;;;;5086343;28;20676;-90
2022/05/26 13:40:14;;;;;;;1.20;1.10;;;22.60;90.50;;;;;;5088531;28;20643;-90
2022/05/26 13:42:44;;;;;;;2.43;1.00;;;22.40;90.60;;;;;;5083907;28;20604;-90
2022/05/26 13:45:21;;;;;;;0.93;0.83;;;22.40;91.10;;;;;;5083221;28;20712;-90
2022/05/26 13:47:48;;;;;;;2.17;0.90;;;22.30;91.00;;;;;;5086320;28;20638;-90
2022/05/26 13:50:15;;;;;;;1.43;1.10;;;22.10;91.30;;;;;;5086058;28;20654;-90